createdAt,value
2022-12-12T00:03:46.808Z,10.80
2022-12-12T00:08:49.158Z,11.18
2022-12-12T00:13:51.510Z,11.93
2022-12-12T00:18:53.787Z,11.95
2022-12-12T00:23:56.109Z,10.18
2022-12-12T00:28:58.936Z,10.95
2022-12-12T00:34:00.627Z,11.18
2022-12-12T00:39:02.630Z,10.85
2022-12-12T00:44:05.346Z,11.40
2022-12-12T00:49:07.110Z,11.07
2022-12-12T00:54:09.659Z,11.20
2022-12-12T00:59:11.744Z,10.77
2022-12-12T01:04:13.528Z,10.32
2022-12-12T01:09:15.294Z,11.43
2022-12-12T01:14:17.116Z,10.95
2022-12-12T01:19:18.878Z,12.48
2022-12-12T01:24:20.527Z,11.90
2022-12-12T01:29:22.225Z,12.13
2022-12-12T01:34:23.888Z,11.80
2022-12-12T01:39:25.614Z,12.30
2022-12-12T01:44:46.918Z,11.10
2022-12-12T01:49:58.638Z,12.32
2022-12-12T01:55:04.473Z,11.60
2022-12-12T02:00:10.000Z,11.50
2022-12-12T02:05:48.889Z,11.80
2022-12-12T02:10:51.224Z,12.77
2022-12-12T02:16:17.537Z,11.23
2022-12-12T02:21:35.117Z,11.85
2022-12-12T02:26:47.611Z,13.18
2022-12-12T02:32:03.303Z,12.93
2022-12-12T02:37:13.248Z,11.23
2022-12-12T02:42:22.365Z,12.55
2022-12-12T02:47:31.317Z,11.48
2022-12-12T02:52:33.227Z,11.30
2022-12-12T02:57:34.963Z,12.63
2022-12-12T03:03:18.473Z,12.57
2022-12-12T03:08:44.700Z,11.95
2022-12-12T03:14:03.256Z,12.20
2022-12-12T03:19:16.181Z,12.02
2022-12-12T03:24:31.002Z,11.32
2022-12-12T03:29:55.539Z,11.50
2022-12-12T03:35:02.971Z,12.60
2022-12-12T03:40:12.796Z,12.32
2022-12-12T03:45:20.979Z,12.55
2022-12-12T03:50:42.802Z,12.20
2022-12-12T03:55:53.711Z,12.27
2022-12-12T04:00:57.987Z,12.18
2022-12-12T04:06:28.998Z,12.10
2022-12-12T04:11:55.971Z,12.85
2022-12-12T04:17:03.267Z,12.43
2022-12-12T04:22:27.540Z,13.23
2022-12-12T04:27:35.422Z,12.30
2022-12-12T04:32:45.619Z,12.27
2022-12-12T04:37:57.399Z,11.85
2022-12-12T04:43:35.837Z,11.48
2022-12-12T04:48:43.657Z,12.27
2022-12-12T04:53:52.504Z,12.20
2022-12-12T04:58:54.272Z,11.88
2022-12-12T05:04:00.883Z,11.30
2022-12-12T05:09:03.201Z,11.70
2022-12-12T05:14:09.303Z,10.70
2022-12-12T05:19:11.015Z,11.88
2022-12-12T05:24:12.750Z,11.88
2022-12-12T05:29:14.563Z,12.43
2022-12-12T05:34:16.296Z,11.88
2022-12-12T05:39:17.998Z,12.10
2022-12-12T05:44:19.660Z,11.70
2022-12-12T05:49:21.494Z,11.18
2022-12-12T05:54:23.206Z,12.27
2022-12-12T05:59:24.952Z,11.30
2022-12-12T06:04:26.715Z,12.18
2022-12-12T06:09:28.546Z,10.88
2022-12-12T06:14:30.365Z,11.05
2022-12-12T06:19:32.072Z,11.13
2022-12-12T06:24:33.735Z,10.80
2022-12-12T06:29:35.485Z,11.60
2022-12-12T06:34:40.358Z,10.75
2022-12-12T06:39:42.194Z,11.05
2022-12-12T06:44:44.017Z,10.38
2022-12-12T06:49:45.703Z,10.48
2022-12-12T06:54:47.483Z,10.45
2022-12-12T06:59:51.059Z,11.38
2022-12-12T07:04:52.749Z,11.52
2022-12-12T07:09:54.487Z,12.50
2022-12-12T07:14:56.160Z,11.98
2022-12-12T07:19:57.887Z,11.70
2022-12-12T07:24:59.610Z,11.75
2022-12-12T07:30:01.323Z,12.48
2022-12-12T07:35:03.348Z,13.32
2022-12-12T07:40:05.510Z,14.95
2022-12-12T07:45:12.447Z,11.93
2022-12-12T07:50:16.736Z,12.50
2022-12-12T07:55:18.580Z,13.68
2022-12-12T08:00:20.701Z,14.57
2022-12-12T08:05:22.404Z,14.55
2022-12-12T08:10:24.193Z,13.00
2022-12-12T08:15:25.903Z,14.77
2022-12-12T08:20:27.665Z,15.75
2022-12-12T08:25:29.388Z,14.00
2022-12-12T08:30:31.065Z,14.57
2022-12-12T08:35:32.796Z,13.27
2022-12-12T08:40:36.128Z,13.73
2022-12-12T08:45:38.880Z,14.18
2022-12-12T08:50:41.332Z,13.07
2022-12-12T08:55:43.024Z,13.50
2022-12-12T09:00:44.756Z,14.27
2022-12-12T09:05:46.813Z,15.13
2022-12-12T09:10:50.530Z,13.77
2022-12-12T09:15:53.038Z,14.38
2022-12-12T09:20:56.734Z,13.27
2022-12-12T09:25:58.841Z,13.20
2022-12-12T09:31:00.996Z,12.63
2022-12-12T09:36:05.711Z,12.80
2022-12-12T09:41:10.182Z,11.70
2022-12-12T09:46:29.963Z,11.80
2022-12-12T09:51:31.761Z,12.90
2022-12-12T09:56:48.609Z,12.77
2022-12-12T10:02:05.584Z,12.48
2022-12-12T10:07:12.179Z,12.05
2022-12-12T10:12:16.949Z,12.10
2022-12-12T10:17:34.316Z,11.30
2022-12-12T10:22:51.621Z,11.52
2022-12-12T10:28:09.892Z,12.43
2022-12-12T10:33:20.102Z,11.32
2022-12-12T10:38:53.952Z,10.73
2022-12-12T10:44:09.693Z,12.13
2022-12-12T10:49:18.399Z,10.32
2022-12-12T10:54:23.004Z,11.38
2022-12-12T10:59:24.680Z,11.93
2022-12-12T11:04:31.290Z,10.93
2022-12-12T11:09:33.060Z,11.57
2022-12-12T11:14:49.361Z,12.43
2022-12-12T11:19:52.769Z,11.98
2022-12-12T11:24:54.960Z,11.25
2022-12-12T11:30:04.749Z,10.90
2022-12-12T11:35:27.028Z,12.48
2022-12-12T11:40:35.577Z,13.40
2022-12-12T11:45:37.347Z,12.80
2022-12-12T11:50:46.163Z,12.80
2022-12-12T11:56:25.194Z,13.35
2022-12-12T12:01:46.099Z,12.00
2022-12-12T12:07:12.641Z,12.15
2022-12-12T12:12:39.483Z,12.48
2022-12-12T12:17:47.307Z,12.02
2022-12-12T12:23:13.990Z,12.43
2022-12-12T12:28:57.956Z,12.82
2022-12-12T12:34:21.925Z,12.48
2022-12-12T12:39:38.644Z,12.57
2022-12-12T12:44:47.740Z,13.68
2022-12-12T12:49:58.933Z,11.40
2022-12-12T12:55:02.558Z,12.35
2022-12-12T13:00:09.931Z,12.90
2022-12-12T13:05:31.109Z,12.13
2022-12-12T13:10:33.591Z,11.45
2022-12-12T13:15:41.856Z,12.13
2022-12-12T13:20:49.990Z,12.63
2022-12-12T13:26:17.378Z,12.43
2022-12-12T13:31:35.696Z,10.90
2022-12-12T13:36:45.623Z,12.43
2022-12-12T13:42:01.190Z,13.55
2022-12-12T13:47:04.871Z,13.52
2022-12-12T13:52:31.469Z,13.88
2022-12-12T13:57:33.441Z,13.85
2022-12-12T14:02:44.191Z,12.05
2022-12-12T14:07:51.862Z,14.05
2022-12-12T14:12:54.911Z,12.30
2022-12-12T14:18:01.002Z,11.27
2022-12-12T14:23:07.558Z,11.90
2022-12-12T14:28:21.552Z,15.20
2022-12-12T14:33:43.605Z,13.82
2022-12-12T14:38:55.548Z,12.98
2022-12-12T14:44:37.600Z,13.20
2022-12-12T14:49:22.850Z,13.95
2022-12-12T14:54:25.182Z,12.85
2022-12-12T14:59:32.673Z,12.13
2022-12-12T15:04:39.670Z,12.85
2022-12-12T15:09:48.687Z,13.27
2022-12-12T15:14:51.661Z,14.57
2022-12-12T15:20:02.181Z,14.48
2022-12-12T15:25:16.160Z,13.55
2022-12-12T15:30:37.495Z,15.40
2022-12-12T15:35:39.311Z,13.52
2022-12-12T15:40:43.016Z,13.38
2022-12-12T15:45:53.110Z,13.00
2022-12-12T15:51:03.146Z,13.70
2022-12-12T15:56:07.704Z,13.10
2022-12-12T16:01:22.479Z,14.60
2022-12-12T16:06:33.125Z,12.95
2022-12-12T16:11:47.484Z,13.65
2022-12-12T16:16:58.628Z,13.60
2022-12-12T16:22:35.781Z,12.73
2022-12-12T16:27:37.511Z,14.18
2022-12-12T16:32:39.260Z,13.82
2022-12-12T16:37:40.969Z,15.75
2022-12-12T16:42:45.511Z,13.85
2022-12-12T16:47:47.187Z,13.52
2022-12-12T16:52:48.848Z,13.65
2022-12-12T16:57:50.759Z,13.05
2022-12-12T17:02:52.477Z,13.25
2022-12-12T17:07:54.862Z,11.52
2022-12-12T17:12:56.665Z,14.50
2022-12-12T17:17:58.981Z,12.10
2022-12-12T17:28:20.701Z,11.63
2022-12-12T17:33:22.369Z,12.27
2022-12-12T17:38:24.041Z,13.07
2022-12-12T17:43:25.927Z,11.00
2022-12-12T17:48:29.963Z,13.38
2022-12-12T17:53:36.565Z,12.25
2022-12-12T17:58:40.934Z,12.77
2022-12-12T18:03:43.966Z,12.10
2022-12-12T18:08:45.935Z,12.77
2022-12-12T18:13:50.344Z,12.27
2022-12-12T18:18:52.988Z,13.10
2022-12-12T18:23:54.713Z,12.55
2022-12-12T18:28:59.694Z,12.77
2022-12-12T18:34:01.729Z,12.50
2022-12-12T18:39:05.162Z,12.07
2022-12-12T18:44:08.912Z,13.43
2022-12-12T18:49:15.739Z,12.52
2022-12-12T18:54:21.307Z,12.02
2022-12-12T18:59:23.051Z,13.32
2022-12-12T19:04:25.029Z,13.10
2022-12-12T19:09:26.766Z,12.88
2022-12-12T19:14:40.415Z,13.27
2022-12-12T19:19:50.765Z,13.90
2022-12-12T19:24:52.464Z,13.10
2022-12-12T19:29:54.143Z,14.68
2022-12-12T19:34:55.778Z,14.13
2022-12-12T19:39:57.487Z,15.57
2022-12-12T19:44:59.303Z,13.18
2022-12-12T19:50:01.084Z,12.60
2022-12-12T19:55:02.977Z,14.07
2022-12-12T20:00:05.270Z,13.55
2022-12-12T20:05:07.068Z,15.30
2022-12-12T20:10:09.176Z,13.27
2022-12-12T20:15:11.302Z,11.35
2022-12-12T20:20:13.321Z,12.70
2022-12-12T20:25:15.349Z,12.60
2022-12-12T20:30:17.714Z,11.93
2022-12-12T20:35:19.455Z,11.82
2022-12-12T20:40:21.265Z,11.73
2022-12-12T20:45:23.300Z,12.15
2022-12-12T20:50:25.021Z,11.52
2022-12-12T20:55:27.037Z,10.45
2022-12-12T21:00:29.832Z,11.88
2022-12-12T21:05:31.536Z,11.23
2022-12-12T21:10:33.699Z,11.85
2022-12-12T21:15:36.847Z,11.20
2022-12-12T21:20:43.199Z,10.98
2022-12-12T21:25:44.898Z,8.18
2022-12-12T21:30:46.599Z,6.45
2022-12-12T21:35:48.479Z,7.93
2022-12-12T21:40:50.191Z,7.50
2022-12-12T21:45:51.856Z,7.07
2022-12-12T21:50:55.197Z,8.30
2022-12-12T21:56:13.333Z,8.95
2022-12-12T22:01:20.583Z,9.85
2022-12-12T22:06:26.992Z,10.80
2022-12-12T22:11:34.380Z,11.23
2022-12-12T22:16:49.849Z,11.48
2022-12-12T22:21:51.514Z,12.02
2022-12-12T22:26:53.249Z,12.60
2022-12-12T22:31:54.957Z,12.45
2022-12-12T22:36:56.718Z,11.32
2022-12-12T22:41:58.374Z,12.63
2022-12-12T22:47:00.216Z,11.65
2022-12-12T22:52:01.932Z,12.82
2022-12-12T22:57:03.721Z,12.00
2022-12-12T23:02:05.480Z,12.05
2022-12-12T23:07:07.316Z,13.05
2022-12-12T23:12:08.984Z,14.50
2022-12-12T23:17:10.656Z,13.43
2022-12-12T23:22:12.342Z,14.82
2022-12-12T23:27:14.086Z,14.60
2022-12-12T23:32:15.742Z,13.53
2022-12-12T23:37:17.455Z,14.40
2022-12-12T23:42:19.134Z,13.40
2022-12-12T23:47:20.788Z,13.50
2022-12-12T23:52:22.480Z,13.03
2022-12-12T23:57:24.142Z,13.00
